Queen Of Cowichan — CZ4990 — position and weather

sailwx.info

Track history (hours):
 
Tides and Currents Weather Stations Pressure Air Temp Water Temp Dewpoint Dewpoint Depression Visibility Wind Speed Wind Dir Waves Ship Positions

Queen Of Cowichan

Last reported at 2017-Oct-19 06:59 UTC. Time now 2017-Oct-19 07:31 UTC.
Position N 49°12' W 123°57'.

Length 139 m.

Type: Passenger vessel. MMSI: 316001251.

Date/timePositionNaut miles runAvg speedWind from/ knotsBaromVisibWave heightAir tempDewpointWater temp
2017-Oct-19 06:59N 49°12' W 123°57'0 0.0
2017-Oct-19 06:26N 49°12' W 123°57'0 0.0
2017-Oct-19 04:29N 49°12' W 123°57'0 0.0
2017-Oct-19 03:50N 49°12' W 123°57'0 0.0
2017-Oct-19 03:14N 49°12' W 123°57'0 0.0
2017-Oct-19 02:32N 49°12' W 123°57'0 0.0
2017-Oct-19 02:19N 49°12' W 123°57'0 0.0
2017-Oct-19 02:00N 49°12' W 123°57'815.2
2017-Oct-19 01:30N 49°16' W 123°48'1020.1
2017-Oct-19 01:00N 49°21' W 123°34'1019.4
2017-Oct-19 00:30N 49°26' W 123°21'4 9.0
2017-Oct-19 00:01N 49°23' W 123°16'1 2.6
2017-Oct-18 23:30N 49°22' W 123°18'1019.0
2017-Oct-18 23:00N 49°18' W 123°31'1019.9
2017-Oct-18 22:30N 49°15' W 123°46'816.8
2017-Oct-18 22:01N 49°12' W 123°57'0 0.0
2017-Oct-18 21:30N 49°12' W 123°57'816.3
2017-Oct-18 21:00N 49°15' W 123°46'1019.9
2017-Oct-18 20:30N 49°19' W 123°32'1019.1
2017-Oct-18 20:00N 49°22' W 123°18'1 2.9
2017-Oct-18 19:30N 49°23' W 123°16'2 4.9
2017-Oct-18 19:00N 49°21' W 123°20'918.3
2017-Oct-18 18:30N 49°17' W 123°32'918.3
2017-Oct-18 18:00N 49°15' W 123°46'816.8
2017-Oct-18 17:31N 49°12' W 123°57'1 1.9
2017-Oct-18 17:01N 49°12' W 123°56'1020.4
2017-Oct-18 16:30N 49°16' W 123°42'1020.7
2017-Oct-18 16:01N 49°19' W 123°27'815.4
2017-Oct-18 15:31N 49°23' W 123°16'1 2.7
2017-Oct-18 15:00N 49°22' W 123°18'1918.9
2017-Oct-18 14:00N 49°15' W 123°45'917.5
2017-Oct-18 13:30N 49°12' W 123°57'0 0.0
2017-Oct-18 13:00N 49°12' W 123°57'0 0.0
2017-Oct-18 12:30N 49°12' W 123°57'0 0.0
2017-Oct-18 11:54N 49°12' W 123°57'0 0.0
2017-Oct-18 11:30N 49°12' W 123°57'0 0.0
2017-Oct-18 11:00N 49°12' W 123°57'0 0.0
2017-Oct-18 10:30N 49°12' W 123°57'0 0.0
2017-Oct-18 09:57N 49°12' W 123°57'0 0.0
2017-Oct-18 09:00N 49°12' W 123°57'0 0.0
2017-Oct-18 08:30N 49°12' W 123°57'0 0.0
2017-Oct-18 08:00N 49°12' W 123°57'0 0.0
2017-Oct-18 07:30N 49°12' W 123°57'0 0.0
2017-Oct-18 07:00N 49°12' W 123°57'0 0.0
2017-Oct-18 06:30N 49°12' W 123°57'0 0.0
2017-Oct-18 06:00N 49°12' W 123°57'0 0.0
2017-Oct-18 05:30N 49°12' W 123°57'0 0.0
2017-Oct-18 05:00N 49°12' W 123°57'0 0.0
2017-Oct-18 04:30N 49°12' W 123°57'0 0.0
2017-Oct-18 04:00N 49°12' W 123°57'0 0.0
2017-Oct-18 03:24N 49°12' W 123°57'0 0.0
2017-Oct-18 02:09N 49°12' W 123°57'0 0.0
2017-Oct-18 01:45N 49°12' W 123°57'311.5
2017-Oct-18 01:31N 49°13' W 123°54'1020.4
2017-Oct-18 01:00N 49°18' W 123°40'1020.3
2017-Oct-18 00:30N 49°20' W 123°25'612.5
2017-Oct-18 00:01N 49°23' W 123°16'1 1.8
2017-Oct-17 23:31N 49°23' W 123°17'1019.2
2017-Oct-17 23:00N 49°18' W 123°29'1020.0
2017-Oct-17 22:30N 49°15' W 123°44'918.8
2017-Oct-17 22:00N 49°12' W 123°57'0 0.0
2017-Oct-17 21:27N 49°12' W 123°57'614.3
2017-Oct-17 21:01N 49°15' W 123°49'1020.6
2017-Oct-17 20:31N 49°18' W 123°34'919.0
2017-Oct-17 20:00N 49°20' W 123°20'3 6.5
2017-Oct-17 19:30N 49°23' W 123°16'3 6.3
2017-Oct-17 19:00N 49°21' W 123°20'1020.3
2017-Oct-17 18:30N 49°16' W 123°34'1020.6
2017-Oct-17 18:00N 49°14' W 123°50'611.3
2017-Oct-17 17:30N 49°12' W 123°57'5 9.3
2017-Oct-17 17:00N 49°14' W 123°51'1019.2
2017-Oct-17 16:30N 49°18' W 123°38'1019.3
2017-Oct-17 16:00N 49°20' W 123°23'510.7
2017-Oct-17 15:30N 49°23' W 123°16'1 1.6
2017-Oct-17 15:00N 49°23' W 123°17'918.6
2017-Oct-17 14:31N 49°18' W 123°29'1019.8
2017-Oct-17 14:01N 49°15' W 123°43'1019.1
2017-Oct-17 13:30N 49°12' W 123°57'0 0.2
2017-Oct-17 13:00N 49°12' W 123°57'0 0.0
2017-Oct-17 12:29N 49°12' W 123°57'0 0.0
2017-Oct-17 12:00N 49°12' W 123°57'0 0.0
2017-Oct-17 11:30N 49°12' W 123°57'0 0.0
2017-Oct-17 11:00N 49°12' W 123°57'0 0.0
2017-Oct-17 10:30N 49°12' W 123°57'0 0.0
2017-Oct-17 10:00N 49°12' W 123°57'0 0.0
2017-Oct-17 09:30N 49°12' W 123°57'0 0.0
2017-Oct-17 09:00N 49°12' W 123°57'0 0.0
2017-Oct-17 08:30N 49°12' W 123°57'0 0.0
2017-Oct-17 08:00N 49°12' W 123°57'0 0.0
2017-Oct-17 07:29N 49°12' W 123°57'0 0.0
2017-Oct-17 07:00N 49°12' W 123°57'0 0.0
2017-Oct-17 06:30N 49°12' W 123°57'0 0.0
2017-Oct-17 06:00N 49°12' W 123°57'0 0.0
2017-Oct-17 05:30N 49°12' W 123°57'0 0.0
2017-Oct-17 05:00N 49°12' W 123°57'0 0.0
2017-Oct-17 04:30N 49°12' W 123°57'0 0.0
2017-Oct-17 04:00N 49°12' W 123°57'0 0.0
2017-Oct-17 03:30N 49°12' W 123°57'0 0.0
2017-Oct-17 03:00N 49°12' W 123°57'0 0.0
2017-Oct-17 02:30N 49°12' W 123°57'0 0.0
2017-Oct-17 02:00N 49°12' W 123°57'3 5.3
2017-Oct-17 01:30N 49°13' W 123°54'1020.5
2017-Oct-17 01:00N 49°17' W 123°40'1020.5
2017-Oct-17 00:31N 49°19' W 123°24'612.5
2017-Oct-17 00:00N 49°23' W 123°16'1 2.0
2017-Oct-16 23:30N 49°23' W 123°18'918.9
2017-Oct-16 23:01N 49°18' W 123°30'1019.6
2017-Oct-16 22:30N 49°15' W 123°44'918.2
2017-Oct-16 22:00N 49°12' W 123°57'0 0.2
2017-Oct-16 21:30N 49°12' W 123°57'713.4
2017-Oct-16 21:00N 49°15' W 123°48'1020.4
2017-Oct-16 20:30N 49°18' W 123°33'1019.3
2017-Oct-16 20:00N 49°21' W 123°20'3 5.2
2017-Oct-16 19:31N 49°23' W 123°16'3 5.1
2017-Oct-16 19:01N 49°21' W 123°20'919.0
2017-Oct-16 18:30N 49°17' W 123°33'1019.3
2017-Oct-16 18:00N 49°15' W 123°47'714.6
2017-Oct-16 17:30N 49°12' W 123°57'1 1.8
2017-Oct-16 17:00N 49°12' W 123°57'1020.3
2017-Oct-16 16:30N 49°16' W 123°42'1020.5
2017-Oct-16 16:00N 49°19' W 123°27'815.9
2017-Oct-16 15:31N 49°23' W 123°16'1 1.8
2017-Oct-16 15:01N 49°23' W 123°18'1919.2
2017-Oct-16 14:00N 49°15' W 123°45'918.1
2017-Oct-16 13:30N 49°12' W 123°57'0 0.0
2017-Oct-16 13:00N 49°12' W 123°57'0 0.0
2017-Oct-16 12:31N 49°12' W 123°57'0 0.0
2017-Oct-16 11:45N 49°12' W 123°57'0 0.0
2017-Oct-16 11:27N 49°12' W 123°57'0 0.0
2017-Oct-16 10:57N 49°12' W 123°57'0 0.0
2017-Oct-16 10:30N 49°12' W 123°57'0 0.0
2017-Oct-16 09:57N 49°12' W 123°57'0 0.0
2017-Oct-16 09:30N 49°12' W 123°57'0 0.0
2017-Oct-16 08:57N 49°12' W 123°57'0 0.0
2017-Oct-16 08:18N 49°12' W 123°57'0 0.0
2017-Oct-16 07:57N 49°12' W 123°57'0 0.0
2017-Oct-16 06:45N 49°12' W 123°57'0 0.0
2017-Oct-16 06:09N 49°12' W 123°57'1 9.3
2017-Oct-16 06:00N 49°13' W 123°56'1020.5
2017-Oct-16 05:30N 49°17' W 123°42'1020.7
2017-Oct-16 05:00N 49°19' W 123°26'714.9
2017-Oct-16 04:30N 49°23' W 123°16'1 2.1
2017-Oct-16 04:01N 49°23' W 123°18'1019.3
2017-Oct-16 03:31N 49°17' W 123°30'1020.2
2017-Oct-16 03:00N 49°15' W 123°45'917.3
2017-Oct-16 02:30N 49°12' W 123°57'0 0.0
2017-Oct-16 02:00N 49°12' W 123°57'715.1
2017-Oct-16 01:30N 49°15' W 123°47'1020.0
2017-Oct-16 01:00N 49°18' W 123°33'1019.2
2017-Oct-16 00:30N 49°22' W 123°19'2 4.0
2017-Oct-16 00:00N 49°23' W 123°16'3 6.2
2017-Oct-15 23:30N 49°21' W 123°20'1020.0
2017-Oct-15 23:00N 49°17' W 123°34'1020.3
2017-Oct-15 22:30N 49°14' W 123°49'610.0
2017-Oct-15 21:55N 49°12' W 123°57'0 0.1
2017-Oct-15 21:30N 49°12' W 123°57'917.2
2017-Oct-15 21:00N 49°16' W 123°46'1020.1
2017-Oct-15 20:30N 49°18' W 123°31'918.5
2017-Oct-15 20:00N 49°22' W 123°18'1 2.4
2017-Oct-15 19:30N 49°23' W 123°16'2 4.4
2017-Oct-15 19:00N 49°21' W 123°19'1019.6
2017-Oct-15 18:30N 49°17' W 123°33'1020.1
2017-Oct-15 18:00N 49°14' W 123°47'714.0
2017-Oct-15 17:30N 49°12' W 123°57'1 2.4
2017-Oct-15 17:00N 49°12' W 123°56'1020.1
2017-Oct-15 16:30N 49°16' W 123°42'1020.6
2017-Oct-15 16:00N 49°19' W 123°26'815.3
2017-Oct-15 15:31N 49°23' W 123°16'1 1.3
2017-Oct-15 15:01N 49°23' W 123°17'1919.2
2017-Oct-15 14:00N 49°15' W 123°43'1019.4
2017-Oct-15 13:30N 49°12' W 123°57'0 0.1
2017-Oct-15 13:00N 49°12' W 123°57'0 0.0
2017-Oct-15 07:42N 49°12' W 123°57'0 0.0
2017-Oct-15 07:30N 49°12' W 123°57'0 0.0
2017-Oct-15 07:00N 49°12' W 123°57'0 0.0
2017-Oct-15 06:30N 49°12' W 123°57'0 0.0
2017-Oct-15 05:48N 49°12' W 123°57'2 5.2
2017-Oct-15 05:30N 49°13' W 123°55'1020.5
2017-Oct-15 05:00N 49°17' W 123°41'1020.8
2017-Oct-15 04:31N 49°19' W 123°26'714.3
2017-Oct-15 04:00N 49°23' W 123°16'2 4.4
2017-Oct-15 03:30N 49°22' W 123°19'1019.3
2017-Oct-15 03:00N 49°17' W 123°32'1019.5
2017-Oct-15 02:30N 49°15' W 123°47'815.1
2017-Oct-15 02:00N 49°12' W 123°57'3 6.1
2017-Oct-15 01:31N 49°13' W 123°54'1020.4
2017-Oct-15 01:01N 49°17' W 123°39'1020.7
2017-Oct-15 00:30N 49°19' W 123°23'611.6
2017-Oct-15 00:00N 49°23' W 123°16'2 3.7
2017-Oct-14 23:31N 49°22' W 123°19'919.0
2017-Oct-14 23:01N 49°17' W 123°31'1019.7
2017-Oct-14 22:31N 49°15' W 123°46'815.6
2017-Oct-14 21:59N 49°12' W 123°57'0 0.3
2017-Oct-14 21:30N 49°12' W 123°57'917.6
2017-Oct-14 21:00N 49°16' W 123°45'1020.4
2017-Oct-14 20:30N 49°18' W 123°30'1019.1
2017-Oct-14 20:00N 49°23' W 123°18'1 1.9
2017-Oct-14 19:30N 49°23' W 123°16'510.8
2017-Oct-14 19:00N 49°19' W 123°23'1019.9
2017-Oct-14 18:30N 49°16' W 123°37'1019.8
2017-Oct-14 18:00N 49°14' W 123°52'4 8.2
2017-Oct-14 17:30N 49°12' W 123°57'4 7.5
2017-Oct-14 17:00N 49°14' W 123°53'1020.3
2017-Oct-14 16:30N 49°17' W 123°38'1020.6
2017-Oct-14 16:00N 49°19' W 123°23'510.5
2017-Oct-14 15:30N 49°23' W 123°16'1 2.0
2017-Oct-14 15:01N 49°23' W 123°18'1019.1
2017-Oct-14 14:31N 49°18' W 123°30'1020.0
2017-Oct-14 14:00N 49°15' W 123°45'917.7
2017-Oct-14 13:30N 49°12' W 123°57'0 0.0
2017-Oct-14 13:00N 49°12' W 123°57'0 0.0
2017-Oct-14 12:29N 49°12' W 123°57'0 0.0
2017-Oct-14 11:59N 49°12' W 123°57'0 0.0
2017-Oct-14 11:23N 49°12' W 123°57'0 0.0
2017-Oct-14 10:53N 49°12' W 123°57'0 0.0
2017-Oct-14 10:29N 49°12' W 123°57'0 0.0
2017-Oct-14 09:59N 49°12' W 123°57'0 0.0
2017-Oct-14 09:29N 49°12' W 123°57'0 0.0
2017-Oct-14 08:53N 49°12' W 123°57'0 0.0
2017-Oct-14 08:29N 49°12' W 123°57'0 0.0
2017-Oct-14 07:59N 49°12' W 123°57'0 0.0
2017-Oct-14 07:20N 49°12' W 123°57'0 0.0
2017-Oct-14 06:42N 49°12' W 123°57'212.3
2017-Oct-14 06:30N 49°13' W 123°54'1020.3
2017-Oct-14 06:00N 49°17' W 123°40'1020.5
2017-Oct-14 05:30N 49°19' W 123°24'612.7
2017-Oct-14 05:00N 49°23' W 123°16'1 1.6
2017-Oct-14 04:30N 49°23' W 123°17'1019.0
2017-Oct-14 04:00N 49°18' W 123°29'1020.1
2017-Oct-14 03:30N 49°15' W 123°44'914.4
2017-Oct-14 02:52N 49°12' W 123°57'0 0.0
2017-Oct-14 02:27N 49°12' W 123°57'714.7
2017-Oct-14 02:00N 49°15' W 123°49'1120.0
2017-Oct-14 01:28N 49°18' W 123°33'919.4
2017-Oct-14 01:00N 49°21' W 123°20'3 4.8
2017-Oct-14 00:25N 49°23' W 123°16'1 2.6
2017-Oct-14 00:01N 49°23' W 123°18'1019.5
2017-Oct-13 23:30N 49°17' W 123°30'1020.5
2017-Oct-13 23:01N 49°15' W 123°45'816.6
2017-Oct-13 22:30N 49°12' W 123°57'0 0.0
2017-Oct-13 21:58N 49°12' W 123°57'511.2
2017-Oct-13 21:30N 49°14' W 123°50'1019.8
2017-Oct-13 21:00N 49°17' W 123°36'1020.0
2017-Oct-13 20:30N 49°20' W 123°21'4 8.3
2017-Oct-13 20:00N 49°23' W 123°16'1 2.2
2017-Oct-13 19:31N 49°23' W 123°18'1019.2
2017-Oct-13 19:01N 49°18' W 123°30'1020.3
2017-Oct-13 18:31N 49°15' W 123°45'916.4
2017-Oct-13 17:59N 49°12' W 123°57'0 0.0
2017-Oct-13 17:28N 49°12' W 123°57'1 2.3
2017-Oct-13 17:00N 49°12' W 123°56'1020.1
2017-Oct-13 16:30N 49°16' W 123°42'1020.6
2017-Oct-13 16:00N 49°19' W 123°27'815.6
2017-Oct-13 15:31N 49°23' W 123°16'1 1.4
2017-Oct-13 15:01N 49°23' W 123°17'1019.0
2017-Oct-13 14:30N 49°18' W 123°29'1020.3
2017-Oct-13 14:01N 49°15' W 123°43'1018.9
2017-Oct-13 13:30N 49°12' W 123°57'0 0.0
2017-Oct-13 13:00N 49°12' W 123°57'0 0.0
2017-Oct-13 12:26N 49°12' W 123°57'0 0.0
2017-Oct-13 11:56N 49°12' W 123°57'0 0.0
2017-Oct-13 11:26N 49°12' W 123°57'0 0.0
2017-Oct-13 10:56N 49°12' W 123°57'0 0.0
2017-Oct-13 10:26N 49°12' W 123°57'0 0.0
2017-Oct-13 09:56N 49°12' W 123°57'0 0.0
2017-Oct-13 09:26N 49°12' W 123°57'0 0.0
2017-Oct-13 08:32N 49°12' W 123°57'0 0.0
2017-Oct-13 07:20N 49°12' W 123°57'0 0.0
2017-Oct-13 06:38N 49°12' W 123°57'0 0.0
2017-Oct-13 06:20N 49°12' W 123°57'0 0.0
2017-Oct-13 05:56N 49°12' W 123°57'0 0.0
2017-Oct-13 05:26N 49°12' W 123°57'0 0.0
2017-Oct-13 04:56N 49°12' W 123°57'0 0.0
2017-Oct-13 04:26N 49°12' W 123°57'0 0.0
2017-Oct-13 03:59N 49°12' W 123°57'0 0.0
2017-Oct-13 03:29N 49°12' W 123°57'0 0.0
2017-Oct-13 02:56N 49°12' W 123°57'0 0.0
2017-Oct-13 02:29N 49°12' W 123°57'0 0.0
2017-Oct-13 01:50N 49°12' W 123°57'515.1
2017-Oct-13 01:30N 49°14' W 123°51'1020.1
2017-Oct-13 01:00N 49°17' W 123°37'1020.2
2017-Oct-13 00:30N 49°20' W 123°21'4 8.7
2017-Oct-13 00:00N 49°23' W 123°16'1 2.1
2017-Oct-12 23:30N 49°23' W 123°18'1019.2
2017-Oct-12 23:00N 49°17' W 123°30'1020.1
2017-Oct-12 22:30N 49°15' W 123°45'917.3
2017-Oct-12 22:00N 49°12' W 123°57'0 0.0
2017-Oct-12 21:30N 49°12' W 123°57'612.0
2017-Oct-12 20:59N 49°15' W 123°49'1020.2
2017-Oct-12 20:31N 49°18' W 123°35'1020.0
2017-Oct-12 20:00N 49°21' W 123°20'3 6.5
2017-Oct-12 19:30N 49°23' W 123°16'2 3.9
2017-Oct-12 19:00N 49°22' W 123°19'1019.2
2017-Oct-12 18:30N 49°17' W 123°32'1020.2
2017-Oct-12 18:00N 49°14' W 123°47'7 9.0
2017-Oct-12 17:11N 49°12' W 123°57'1 7.1
2017-Oct-12 17:00N 49°13' W 123°56'1020.5
2017-Oct-12 16:30N 49°17' W 123°42'1020.7
2017-Oct-12 16:00N 49°19' W 123°26'714.8
2017-Oct-12 15:30N 49°23' W 123°16'1 1.7
2017-Oct-12 15:00N 49°23' W 123°17'1019.2
2017-Oct-12 14:30N 49°18' W 123°29'1020.3
2017-Oct-12 14:00N 49°15' W 123°44'918.1
2017-Oct-12 13:30N 49°12' W 123°57'0 0.0
2017-Oct-12 13:00N 49°12' W 123°57'0 0.0
2017-Oct-12 12:30N 49°12' W 123°57'0 0.0
2017-Oct-12 11:33N 49°12' W 123°57'0 0.0
2017-Oct-12 11:21N 49°12' W 123°57'0 0.0
2017-Oct-12 10:54N 49°12' W 123°57'0 0.0
2017-Oct-12 10:27N 49°12' W 123°57'0 0.0
2017-Oct-12 09:57N 49°12' W 123°57'0 0.0
2017-Oct-12 09:21N 49°12' W 123°57'0 0.0
2017-Oct-12 08:57N 49°12' W 123°57'0 0.0
2017-Oct-12 08:27N 49°12' W 123°57'0 0.0
2017-Oct-12 07:51N 49°12' W 123°57'0 0.0
2017-Oct-12 07:21N 49°12' W 123°57'0 0.0
2017-Oct-12 06:48N 49°12' W 123°57'0 0.0
2017-Oct-12 06:15N 49°12' W 123°57'0 0.0
2017-Oct-12 05:57N 49°12' W 123°57'0 0.0
2017-Oct-12 05:27N 49°12' W 123°57'0 0.0
2017-Oct-12 04:57N 49°12' W 123°57'0 0.0
2017-Oct-12 04:27N 49°12' W 123°57'0 0.0
2017-Oct-12 03:57N 49°12' W 123°57'0 0.0
2017-Oct-12 03:27N 49°12' W 123°57'0 0.0
2017-Oct-12 03:00N 49°12' W 123°57'0 0.0
2017-Oct-12 02:18N 49°12' W 123°57'0 0.0
2017-Oct-12 01:57N 49°12' W 123°57'1 2.2
2017-Oct-12 01:30N 49°12' W 123°56'1020.2
2017-Oct-12 01:00N 49°16' W 123°42'1020.3
2017-Oct-12 00:31N 49°19' W 123°27'816.0
2017-Oct-12 00:00N 49°23' W 123°16'1 1.3
2017-Oct-11 23:30N 49°23' W 123°17'1019.2
2017-Oct-11 23:00N 49°17' W 123°28'1020.3
2017-Oct-11 22:30N 49°15' W 123°44'1018.6
2017-Oct-11 22:00N 49°12' W 123°57'0 0.0
2017-Oct-11 21:30N 49°12' W 123°57'3 6.1
2017-Oct-11 21:00N 49°13' W 123°54'1019.5
2017-Oct-11 20:30N 49°17' W 123°40'1020.2
2017-Oct-11 20:00N 49°19' W 123°25'612.7
2017-Oct-11 19:30N 49°23' W 123°16'1 2.3
2017-Oct-11 19:01N 49°23' W 123°18'1019.4
2017-Oct-11 18:30N 49°18' W 123°30'1020.7
2017-Oct-11 18:00N 49°15' W 123°45'917.4
2017-Oct-11 17:30N 49°12' W 123°57'1 1.4
2017-Oct-11 17:01N 49°12' W 123°57'26 1.5
2017-Oct-11 00:00N 49°20' W 123°20'1019.3
2017-Oct-10 23:30N 49°17' W 123°33'1019.8
2017-Oct-10 23:00N 49°14' W 123°48'712.8
2017-Oct-10 22:30N 49°12' W 123°57'0 0.0
2017-Oct-10 22:00N 49°12' W 123°57'612.0
2017-Oct-10 21:30N 49°14' W 123°49'1020.2
2017-Oct-10 21:00N 49°17' W 123°34'1019.6
2017-Oct-10 20:30N 49°20' W 123°20'3 6.6
2017-Oct-10 20:00N 49°23' W 123°16'1 2.5
2017-Oct-10 19:30N 49°23' W 123°18'918.5
2017-Oct-10 19:00N 49°17' W 123°30'1020.5
2017-Oct-10 18:30N 49°15' W 123°45'916.7
2017-Oct-10 18:00N 49°12' W 123°57'0 0.1
2017-Oct-10 17:31N 49°12' W 123°57'816.8
2017-Oct-10 17:00N 49°15' W 123°46'1019.8
2017-Oct-10 16:31N 49°18' W 123°31'918.2
2017-Oct-10 16:01N 49°22' W 123°19'2 3.2
2017-Oct-10 15:30N 49°23' W 123°16'5 9.2
2017-Oct-10 15:00N 49°20' W 123°21'1818.1
2017-Oct-10 14:00N 49°14' W 123°48'713.0
2017-Oct-10 13:30N 49°12' W 123°57'0 0.0
2017-Oct-10 12:36N 49°12' W 123°57'0 0.0
2017-Oct-10 12:21N 49°12' W 123°57'0 0.0
2017-Oct-10 11:27N 49°12' W 123°57'0 0.0
2017-Oct-10 10:27N 49°12' W 123°57'0 0.0
2017-Oct-10 10:00N 49°12' W 123°57'0 0.0
2017-Oct-10 09:30N 49°12' W 123°57'0 0.0
2017-Oct-10 09:00N 49°12' W 123°57'0 0.0
2017-Oct-10 08:30N 49°12' W 123°57'0 0.0
2017-Oct-10 07:15N 49°12' W 123°57'0 0.0
2017-Oct-10 07:00N 49°12' W 123°57'4 8.0
2017-Oct-10 06:30N 49°14' W 123°53'1020.0
2017-Oct-10 06:00N 49°17' W 123°38'1020.6
2017-Oct-10 05:30N 49°20' W 123°23'510.3
2017-Oct-10 05:00N 49°23' W 123°16'0 0.0
2017-Oct-10 04:30N 49°23' W 123°16'612.8
2017-Oct-10 04:00N 49°19' W 123°24'1019.4
2017-Oct-10 03:31N 49°16' W 123°38'1020.3
2017-Oct-10 03:01N 49°13' W 123°54'3 6.2
2017-Oct-10 02:30N 49°12' W 123°57'2 3.1
2017-Oct-10 02:00N 49°13' W 123°55'1020.0
2017-Oct-10 01:30N 49°16' W 123°41'1020.2
2017-Oct-10 01:00N 49°19' W 123°26'815.1
2017-Oct-10 00:30N 49°23' W 123°16'0 0.0
2017-Oct-10 00:00N 49°23' W 123°16'510.0
2017-Oct-09 23:30N 49°19' W 123°22'1020.2
2017-Oct-09 23:00N 49°16' W 123°37'1020.2
2017-Oct-09 22:30N 49°14' W 123°52'4 8.3
2017-Oct-09 22:01N 49°12' W 123°57'0 0.3
2017-Oct-09 21:30N 49°12' W 123°57'918.1
2017-Oct-09 21:00N 49°16' W 123°45'1020.0
2017-Oct-09 20:31N 49°18' W 123°30'1019.0
2017-Oct-09 20:01N 49°23' W 123°17'1 1.7
2017-Oct-09 19:30N 49°23' W 123°16'5 9.2
2017-Oct-09 19:01N 49°20' W 123°21'1020.1
2017-Oct-09 18:31N 49°16' W 123°36'1020.4
2017-Oct-09 18:01N 49°13' W 123°51'4 8.8
2017-Oct-09 17:30N 49°12' W 123°57'1 2.2
2017-Oct-09 17:00N 49°12' W 123°56'1020.0
2017-Oct-09 16:30N 49°16' W 123°42'1020.7
2017-Oct-09 16:00N 49°19' W 123°27'815.5
2017-Oct-09 15:30N 49°23' W 123°16'0 0.0
2017-Oct-09 15:00N 49°23' W 123°16'612.4
2017-Oct-09 14:30N 49°19' W 123°24'1020.0
2017-Oct-09 14:00N 49°16' W 123°38'1020.4
2017-Oct-09 13:30N 49°13' W 123°54'3 5.0
2017-Oct-09 12:55N 49°12' W 123°57'0 0.0
2017-Oct-09 12:07N 49°12' W 123°57'0 0.0
2017-Oct-09 11:55N 49°12' W 123°57'0 0.0
2017-Oct-09 11:25N 49°12' W 123°57'0 0.0
2017-Oct-09 10:55N 49°12' W 123°57'0 0.0
2017-Oct-09 10:28N 49°12' W 123°57'0 0.0
2017-Oct-09 09:55N 49°12' W 123°57'0 0.0
2017-Oct-09 09:25N 49°12' W 123°57'0 0.0
2017-Oct-09 08:58N 49°12' W 123°57'0 0.0
2017-Oct-09 08:25N 49°12' W 123°57'0 0.0
2017-Oct-09 07:43N 49°12' W 123°57'0 0.0
2017-Oct-09 07:28N 49°12' W 123°57'  
Track history (hours):
 
Tides and Currents Weather Stations Pressure Air Temp Water Temp Dewpoint Dewpoint Depression Visibility Wind Speed Wind Dir Waves Ship Positions

Queen Of Cowichan

Last reported at 2017-Oct-19 06:59 UTC. Time now 2017-Oct-19 07:31 UTC.
Position N 49°12' W 123°57'.

Length 139 m.

Type: Passenger vessel. MMSI: 316001251.

Date/timePositionNaut miles runAvg speedWind from/ knotsBaromVisibWave heightAir tempDewpointWater temp
2017-Oct-19 06:59N 49°12' W 123°57'0 0.0
2017-Oct-19 06:26N 49°12' W 123°57'0 0.0
2017-Oct-19 04:29N 49°12' W 123°57'0 0.0
2017-Oct-19 03:50N 49°12' W 123°57'0 0.0
2017-Oct-19 03:14N 49°12' W 123°57'0 0.0
2017-Oct-19 02:32N 49°12' W 123°57'0 0.0
2017-Oct-19 02:19N 49°12' W 123°57'0 0.0
2017-Oct-19 02:00N 49°12' W 123°57'815.2
2017-Oct-19 01:30N 49°16' W 123°48'1020.1
2017-Oct-19 01:00N 49°21' W 123°34'1019.4
2017-Oct-19 00:30N 49°26' W 123°21'4 9.0
2017-Oct-19 00:01N 49°23' W 123°16'1 2.6
2017-Oct-18 23:30N 49°22' W 123°18'1019.0
2017-Oct-18 23:00N 49°18' W 123°31'1019.9
2017-Oct-18 22:30N 49°15' W 123°46'816.8
2017-Oct-18 22:01N 49°12' W 123°57'0 0.0
2017-Oct-18 21:30N 49°12' W 123°57'816.3
2017-Oct-18 21:00N 49°15' W 123°46'1019.9
2017-Oct-18 20:30N 49°19' W 123°32'1019.1
2017-Oct-18 20:00N 49°22' W 123°18'1 2.9
2017-Oct-18 19:30N 49°23' W 123°16'2 4.9
2017-Oct-18 19:00N 49°21' W 123°20'918.3
2017-Oct-18 18:30N 49°17' W 123°32'918.3
2017-Oct-18 18:00N 49°15' W 123°46'816.8
2017-Oct-18 17:31N 49°12' W 123°57'1 1.9
2017-Oct-18 17:01N 49°12' W 123°56'1020.4
2017-Oct-18 16:30N 49°16' W 123°42'1020.7
2017-Oct-18 16:01N 49°19' W 123°27'815.4
2017-Oct-18 15:31N 49°23' W 123°16'1 2.7
2017-Oct-18 15:00N 49°22' W 123°18'1918.9
2017-Oct-18 14:00N 49°15' W 123°45'917.5
2017-Oct-18 13:30N 49°12' W 123°57'0 0.0
2017-Oct-18 13:00N 49°12' W 123°57'0 0.0
2017-Oct-18 12:30N 49°12' W 123°57'0 0.0
2017-Oct-18 11:54N 49°12' W 123°57'0 0.0
2017-Oct-18 11:30N 49°12' W 123°57'0 0.0
2017-Oct-18 11:00N 49°12' W 123°57'0 0.0
2017-Oct-18 10:30N 49°12' W 123°57'0 0.0
2017-Oct-18 09:57N 49°12' W 123°57'0 0.0
2017-Oct-18 09:00N 49°12' W 123°57'0 0.0
2017-Oct-18 08:30N 49°12' W 123°57'0 0.0
2017-Oct-18 08:00N 49°12' W 123°57'0 0.0
2017-Oct-18 07:30N 49°12' W 123°57'0 0.0
2017-Oct-18 07:00N 49°12' W 123°57'0 0.0
2017-Oct-18 06:30N 49°12' W 123°57'0 0.0
2017-Oct-18 06:00N 49°12' W 123°57'0 0.0
2017-Oct-18 05:30N 49°12' W 123°57'0 0.0
2017-Oct-18 05:00N 49°12' W 123°57'0 0.0
2017-Oct-18 04:30N 49°12' W 123°57'0 0.0
2017-Oct-18 04:00N 49°12' W 123°57'0 0.0
2017-Oct-18 03:24N 49°12' W 123°57'0 0.0
2017-Oct-18 02:09N 49°12' W 123°57'0 0.0
2017-Oct-18 01:45N 49°12' W 123°57'311.5
2017-Oct-18 01:31N 49°13' W 123°54'1020.4
2017-Oct-18 01:00N 49°18' W 123°40'1020.3
2017-Oct-18 00:30N 49°20' W 123°25'612.5
2017-Oct-18 00:01N 49°23' W 123°16'1 1.8
2017-Oct-17 23:31N 49°23' W 123°17'1019.2
2017-Oct-17 23:00N 49°18' W 123°29'1020.0
2017-Oct-17 22:30N 49°15' W 123°44'918.8
2017-Oct-17 22:00N 49°12' W 123°57'0 0.0
2017-Oct-17 21:27N 49°12' W 123°57'614.3
2017-Oct-17 21:01N 49°15' W 123°49'1020.6
2017-Oct-17 20:31N 49°18' W 123°34'919.0
2017-Oct-17 20:00N 49°20' W 123°20'3 6.5
2017-Oct-17 19:30N 49°23' W 123°16'3 6.3
2017-Oct-17 19:00N 49°21' W 123°20'1020.3
2017-Oct-17 18:30N 49°16' W 123°34'1020.6
2017-Oct-17 18:00N 49°14' W 123°50'611.3
2017-Oct-17 17:30N 49°12' W 123°57'5 9.3
2017-Oct-17 17:00N 49°14' W 123°51'1019.2
2017-Oct-17 16:30N 49°18' W 123°38'1019.3
2017-Oct-17 16:00N 49°20' W 123°23'510.7
2017-Oct-17 15:30N 49°23' W 123°16'1 1.6
2017-Oct-17 15:00N 49°23' W 123°17'918.6
2017-Oct-17 14:31N 49°18' W 123°29'1019.8
2017-Oct-17 14:01N 49°15' W 123°43'1019.1
2017-Oct-17 13:30N 49°12' W 123°57'0 0.2
2017-Oct-17 13:00N 49°12' W 123°57'0 0.0
2017-Oct-17 12:29N 49°12' W 123°57'0 0.0
2017-Oct-17 12:00N 49°12' W 123°57'0 0.0
2017-Oct-17 11:30N 49°12' W 123°57'0 0.0
2017-Oct-17 11:00N 49°12' W 123°57'0 0.0
2017-Oct-17 10:30N 49°12' W 123°57'0 0.0
2017-Oct-17 10:00N 49°12' W 123°57'0 0.0
2017-Oct-17 09:30N 49°12' W 123°57'0 0.0
2017-Oct-17 09:00N 49°12' W 123°57'0 0.0
2017-Oct-17 08:30N 49°12' W 123°57'0 0.0
2017-Oct-17 08:00N 49°12' W 123°57'0 0.0
2017-Oct-17 07:29N 49°12' W 123°57'0 0.0
2017-Oct-17 07:00N 49°12' W 123°57'0 0.0
2017-Oct-17 06:30N 49°12' W 123°57'0 0.0
2017-Oct-17 06:00N 49°12' W 123°57'0 0.0
2017-Oct-17 05:30N 49°12' W 123°57'0 0.0
2017-Oct-17 05:00N 49°12' W 123°57'0 0.0
2017-Oct-17 04:30N 49°12' W 123°57'0 0.0
2017-Oct-17 04:00N 49°12' W 123°57'0 0.0
2017-Oct-17 03:30N 49°12' W 123°57'0 0.0
2017-Oct-17 03:00N 49°12' W 123°57'0 0.0
2017-Oct-17 02:30N 49°12' W 123°57'0 0.0
2017-Oct-17 02:00N 49°12' W 123°57'3 5.3
2017-Oct-17 01:30N 49°13' W 123°54'1020.5
2017-Oct-17 01:00N 49°17' W 123°40'1020.5
2017-Oct-17 00:31N 49°19' W 123°24'612.5
2017-Oct-17 00:00N 49°23' W 123°16'1 2.0
2017-Oct-16 23:30N 49°23' W 123°18'918.9
2017-Oct-16 23:01N 49°18' W 123°30'1019.6
2017-Oct-16 22:30N 49°15' W 123°44'918.2
2017-Oct-16 22:00N 49°12' W 123°57'0 0.2
2017-Oct-16 21:30N 49°12' W 123°57'713.4
2017-Oct-16 21:00N 49°15' W 123°48'1020.4
2017-Oct-16 20:30N 49°18' W 123°33'1019.3
2017-Oct-16 20:00N 49°21' W 123°20'3 5.2
2017-Oct-16 19:31N 49°23' W 123°16'3 5.1
2017-Oct-16 19:01N 49°21' W 123°20'919.0
2017-Oct-16 18:30N 49°17' W 123°33'1019.3
2017-Oct-16 18:00N 49°15' W 123°47'714.6
2017-Oct-16 17:30N 49°12' W 123°57'1 1.8
2017-Oct-16 17:00N 49°12' W 123°57'1020.3
2017-Oct-16 16:30N 49°16' W 123°42'1020.5
2017-Oct-16 16:00N 49°19' W 123°27'815.9
2017-Oct-16 15:31N 49°23' W 123°16'1 1.8
2017-Oct-16 15:01N 49°23' W 123°18'1919.2
2017-Oct-16 14:00N 49°15' W 123°45'918.1
2017-Oct-16 13:30N 49°12' W 123°57'0 0.0
2017-Oct-16 13:00N 49°12' W 123°57'0 0.0
2017-Oct-16 12:31N 49°12' W 123°57'0 0.0
2017-Oct-16 11:45N 49°12' W 123°57'0 0.0
2017-Oct-16 11:27N 49°12' W 123°57'0 0.0
2017-Oct-16 10:57N 49°12' W 123°57'0 0.0
2017-Oct-16 10:30N 49°12' W 123°57'0 0.0
2017-Oct-16 09:57N 49°12' W 123°57'0 0.0
2017-Oct-16 09:30N 49°12' W 123°57'0 0.0
2017-Oct-16 08:57N 49°12' W 123°57'0 0.0
2017-Oct-16 08:18N 49°12' W 123°57'0 0.0
2017-Oct-16 07:57N 49°12' W 123°57'0 0.0
2017-Oct-16 06:45N 49°12' W 123°57'0 0.0
2017-Oct-16 06:09N 49°12' W 123°57'1 9.3
2017-Oct-16 06:00N 49°13' W 123°56'1020.5
2017-Oct-16 05:30N 49°17' W 123°42'1020.7
2017-Oct-16 05:00N 49°19' W 123°26'714.9
2017-Oct-16 04:30N 49°23' W 123°16'1 2.1
2017-Oct-16 04:01N 49°23' W 123°18'1019.3
2017-Oct-16 03:31N 49°17' W 123°30'1020.2
2017-Oct-16 03:00N 49°15' W 123°45'917.3
2017-Oct-16 02:30N 49°12' W 123°57'0 0.0
2017-Oct-16 02:00N 49°12' W 123°57'715.1
2017-Oct-16 01:30N 49°15' W 123°47'1020.0
2017-Oct-16 01:00N 49°18' W 123°33'1019.2
2017-Oct-16 00:30N 49°22' W 123°19'2 4.0
2017-Oct-16 00:00N 49°23' W 123°16'3 6.2
2017-Oct-15 23:30N 49°21' W 123°20'1020.0
2017-Oct-15 23:00N 49°17' W 123°34'1020.3
2017-Oct-15 22:30N 49°14' W 123°49'610.0
2017-Oct-15 21:55N 49°12' W 123°57'0 0.1
2017-Oct-15 21:30N 49°12' W 123°57'917.2
2017-Oct-15 21:00N 49°16' W 123°46'1020.1
2017-Oct-15 20:30N 49°18' W 123°31'918.5
2017-Oct-15 20:00N 49°22' W 123°18'1 2.4
2017-Oct-15 19:30N 49°23' W 123°16'2 4.4
2017-Oct-15 19:00N 49°21' W 123°19'1019.6
2017-Oct-15 18:30N 49°17' W 123°33'1020.1
2017-Oct-15 18:00N 49°14' W 123°47'714.0
2017-Oct-15 17:30N 49°12' W 123°57'1 2.4
2017-Oct-15 17:00N 49°12' W 123°56'1020.1
2017-Oct-15 16:30N 49°16' W 123°42'1020.6
2017-Oct-15 16:00N 49°19' W 123°26'815.3
2017-Oct-15 15:31N 49°23' W 123°16'1 1.3
2017-Oct-15 15:01N 49°23' W 123°17'1919.2
2017-Oct-15 14:00N 49°15' W 123°43'1019.4
2017-Oct-15 13:30N 49°12' W 123°57'0 0.1
2017-Oct-15 13:00N 49°12' W 123°57'0 0.0
2017-Oct-15 07:42N 49°12' W 123°57'0 0.0
2017-Oct-15 07:30N 49°12' W 123°57'0 0.0
2017-Oct-15 07:00N 49°12' W 123°57'0 0.0
2017-Oct-15 06:30N 49°12' W 123°57'0 0.0
2017-Oct-15 05:48N 49°12' W 123°57'2 5.2
2017-Oct-15 05:30N 49°13' W 123°55'1020.5
2017-Oct-15 05:00N 49°17' W 123°41'1020.8
2017-Oct-15 04:31N 49°19' W 123°26'714.3
2017-Oct-15 04:00N 49°23' W 123°16'2 4.4
2017-Oct-15 03:30N 49°22' W 123°19'1019.3
2017-Oct-15 03:00N 49°17' W 123°32'1019.5
2017-Oct-15 02:30N 49°15' W 123°47'815.1
2017-Oct-15 02:00N 49°12' W 123°57'3 6.1
2017-Oct-15 01:31N 49°13' W 123°54'1020.4
2017-Oct-15 01:01N 49°17' W 123°39'1020.7
2017-Oct-15 00:30N 49°19' W 123°23'611.6
2017-Oct-15 00:00N 49°23' W 123°16'2 3.7
2017-Oct-14 23:31N 49°22' W 123°19'919.0
2017-Oct-14 23:01N 49°17' W 123°31'1019.7
2017-Oct-14 22:31N 49°15' W 123°46'815.6
2017-Oct-14 21:59N 49°12' W 123°57'0 0.3
2017-Oct-14 21:30N 49°12' W 123°57'917.6
2017-Oct-14 21:00N 49°16' W 123°45'1020.4
2017-Oct-14 20:30N 49°18' W 123°30'1019.1
2017-Oct-14 20:00N 49°23' W 123°18'1 1.9
2017-Oct-14 19:30N 49°23' W 123°16'510.8
2017-Oct-14 19:00N 49°19' W 123°23'1019.9
2017-Oct-14 18:30N 49°16' W 123°37'1019.8
2017-Oct-14 18:00N 49°14' W 123°52'4 8.2
2017-Oct-14 17:30N 49°12' W 123°57'4 7.5
2017-Oct-14 17:00N 49°14' W 123°53'1020.3
2017-Oct-14 16:30N 49°17' W 123°38'1020.6
2017-Oct-14 16:00N 49°19' W 123°23'510.5
2017-Oct-14 15:30N 49°23' W 123°16'1 2.0
2017-Oct-14 15:01N 49°23' W 123°18'1019.1
2017-Oct-14 14:31N 49°18' W 123°30'1020.0
2017-Oct-14 14:00N 49°15' W 123°45'917.7
2017-Oct-14 13:30N 49°12' W 123°57'0 0.0
2017-Oct-14 13:00N 49°12' W 123°57'0 0.0
2017-Oct-14 12:29N 49°12' W 123°57'0 0.0
2017-Oct-14 11:59N 49°12' W 123°57'0 0.0
2017-Oct-14 11:23N 49°12' W 123°57'0 0.0
2017-Oct-14 10:53N 49°12' W 123°57'0 0.0
2017-Oct-14 10:29N 49°12' W 123°57'0 0.0
2017-Oct-14 09:59N 49°12' W 123°57'0 0.0
2017-Oct-14 09:29N 49°12' W 123°57'0 0.0
2017-Oct-14 08:53N 49°12' W 123°57'0 0.0
2017-Oct-14 08:29N 49°12' W 123°57'0 0.0
2017-Oct-14 07:59N 49°12' W 123°57'0 0.0
2017-Oct-14 07:20N 49°12' W 123°57'0 0.0
2017-Oct-14 06:42N 49°12' W 123°57'212.3
2017-Oct-14 06:30N 49°13' W 123°54'1020.3
2017-Oct-14 06:00N 49°17' W 123°40'1020.5
2017-Oct-14 05:30N 49°19' W 123°24'612.7
2017-Oct-14 05:00N 49°23' W 123°16'1 1.6
2017-Oct-14 04:30N 49°23' W 123°17'1019.0
2017-Oct-14 04:00N 49°18' W 123°29'1020.1
2017-Oct-14 03:30N 49°15' W 123°44'914.4
2017-Oct-14 02:52N 49°12' W 123°57'0 0.0
2017-Oct-14 02:27N 49°12' W 123°57'714.7
2017-Oct-14 02:00N 49°15' W 123°49'1120.0
2017-Oct-14 01:28N 49°18' W 123°33'919.4
2017-Oct-14 01:00N 49°21' W 123°20'3 4.8
2017-Oct-14 00:25N 49°23' W 123°16'1 2.6
2017-Oct-14 00:01N 49°23' W 123°18'1019.5
2017-Oct-13 23:30N 49°17' W 123°30'1020.5
2017-Oct-13 23:01N 49°15' W 123°45'816.6
2017-Oct-13 22:30N 49°12' W 123°57'0 0.0
2017-Oct-13 21:58N 49°12' W 123°57'511.2
2017-Oct-13 21:30N 49°14' W 123°50'1019.8
2017-Oct-13 21:00N 49°17' W 123°36'1020.0
2017-Oct-13 20:30N 49°20' W 123°21'4 8.3
2017-Oct-13 20:00N 49°23' W 123°16'1 2.2
2017-Oct-13 19:31N 49°23' W 123°18'1019.2
2017-Oct-13 19:01N 49°18' W 123°30'1020.3
2017-Oct-13 18:31N 49°15' W 123°45'916.4
2017-Oct-13 17:59N 49°12' W 123°57'0 0.0
2017-Oct-13 17:28N 49°12' W 123°57'1 2.3
2017-Oct-13 17:00N 49°12' W 123°56'1020.1
2017-Oct-13 16:30N 49°16' W 123°42'1020.6
2017-Oct-13 16:00N 49°19' W 123°27'815.6
2017-Oct-13 15:31N 49°23' W 123°16'1 1.4
2017-Oct-13 15:01N 49°23' W 123°17'1019.0
2017-Oct-13 14:30N 49°18' W 123°29'1020.3
2017-Oct-13 14:01N 49°15' W 123°43'1018.9
2017-Oct-13 13:30N 49°12' W 123°57'0 0.0
2017-Oct-13 13:00N 49°12' W 123°57'0 0.0
2017-Oct-13 12:26N 49°12' W 123°57'0 0.0
2017-Oct-13 11:56N 49°12' W 123°57'0 0.0
2017-Oct-13 11:26N 49°12' W 123°57'0 0.0
2017-Oct-13 10:56N 49°12' W 123°57'0 0.0
2017-Oct-13 10:26N 49°12' W 123°57'0 0.0
2017-Oct-13 09:56N 49°12' W 123°57'0 0.0
2017-Oct-13 09:26N 49°12' W 123°57'0 0.0
2017-Oct-13 08:32N 49°12' W 123°57'0 0.0
2017-Oct-13 07:20N 49°12' W 123°57'0 0.0
2017-Oct-13 06:38N 49°12' W 123°57'0 0.0
2017-Oct-13 06:20N 49°12' W 123°57'0 0.0
2017-Oct-13 05:56N 49°12' W 123°57'0 0.0
2017-Oct-13 05:26N 49°12' W 123°57'0 0.0
2017-Oct-13 04:56N 49°12' W 123°57'0 0.0
2017-Oct-13 04:26N 49°12' W 123°57'0 0.0
2017-Oct-13 03:59N 49°12' W 123°57'0 0.0
2017-Oct-13 03:29N 49°12' W 123°57'0 0.0
2017-Oct-13 02:56N 49°12' W 123°57'0 0.0
2017-Oct-13 02:29N 49°12' W 123°57'0 0.0
2017-Oct-13 01:50N 49°12' W 123°57'515.1
2017-Oct-13 01:30N 49°14' W 123°51'1020.1
2017-Oct-13 01:00N 49°17' W 123°37'1020.2
2017-Oct-13 00:30N 49°20' W 123°21'4 8.7
2017-Oct-13 00:00N 49°23' W 123°16'1 2.1
2017-Oct-12 23:30N 49°23' W 123°18'1019.2
2017-Oct-12 23:00N 49°17' W 123°30'1020.1
2017-Oct-12 22:30N 49°15' W 123°45'917.3
2017-Oct-12 22:00N 49°12' W 123°57'0 0.0
2017-Oct-12 21:30N 49°12' W 123°57'612.0
2017-Oct-12 20:59N 49°15' W 123°49'1020.2
2017-Oct-12 20:31N 49°18' W 123°35'1020.0
2017-Oct-12 20:00N 49°21' W 123°20'3 6.5
2017-Oct-12 19:30N 49°23' W 123°16'2 3.9
2017-Oct-12 19:00N 49°22' W 123°19'1019.2
2017-Oct-12 18:30N 49°17' W 123°32'1020.2
2017-Oct-12 18:00N 49°14' W 123°47'7 9.0
2017-Oct-12 17:11N 49°12' W 123°57'1 7.1
2017-Oct-12 17:00N 49°13' W 123°56'1020.5
2017-Oct-12 16:30N 49°17' W 123°42'1020.7
2017-Oct-12 16:00N 49°19' W 123°26'714.8
2017-Oct-12 15:30N 49°23' W 123°16'1 1.7
2017-Oct-12 15:00N 49°23' W 123°17'1019.2
2017-Oct-12 14:30N 49°18' W 123°29'1020.3
2017-Oct-12 14:00N 49°15' W 123°44'918.1
2017-Oct-12 13:30N 49°12' W 123°57'0 0.0
2017-Oct-12 13:00N 49°12' W 123°57'0 0.0
2017-Oct-12 12:30N 49°12' W 123°57'0 0.0
2017-Oct-12 11:33N 49°12' W 123°57'0 0.0
2017-Oct-12 11:21N 49°12' W 123°57'0 0.0
2017-Oct-12 10:54N 49°12' W 123°57'0 0.0
2017-Oct-12 10:27N 49°12' W 123°57'0 0.0
2017-Oct-12 09:57N 49°12' W 123°57'0 0.0
2017-Oct-12 09:21N 49°12' W 123°57'0 0.0
2017-Oct-12 08:57N 49°12' W 123°57'0 0.0
2017-Oct-12 08:27N 49°12' W 123°57'0 0.0
2017-Oct-12 07:51N 49°12' W 123°57'0 0.0
2017-Oct-12 07:21N 49°12' W 123°57'0 0.0
2017-Oct-12 06:48N 49°12' W 123°57'0 0.0
2017-Oct-12 06:15N 49°12' W 123°57'0 0.0
2017-Oct-12 05:57N 49°12' W 123°57'0 0.0
2017-Oct-12 05:27N 49°12' W 123°57'0 0.0
2017-Oct-12 04:57N 49°12' W 123°57'0 0.0
2017-Oct-12 04:27N 49°12' W 123°57'0 0.0
2017-Oct-12 03:57N 49°12' W 123°57'0 0.0
2017-Oct-12 03:27N 49°12' W 123°57'0 0.0
2017-Oct-12 03:00N 49°12' W 123°57'0 0.0
2017-Oct-12 02:18N 49°12' W 123°57'0 0.0
2017-Oct-12 01:57N 49°12' W 123°57'1 2.2
2017-Oct-12 01:30N 49°12' W 123°56'1020.2
2017-Oct-12 01:00N 49°16' W 123°42'1020.3
2017-Oct-12 00:31N 49°19' W 123°27'816.0
2017-Oct-12 00:00N 49°23' W 123°16'1 1.3
2017-Oct-11 23:30N 49°23' W 123°17'1019.2
2017-Oct-11 23:00N 49°17' W 123°28'1020.3
2017-Oct-11 22:30N 49°15' W 123°44'1018.6
2017-Oct-11 22:00N 49°12' W 123°57'0 0.0
2017-Oct-11 21:30N 49°12' W 123°57'3 6.1
2017-Oct-11 21:00N 49°13' W 123°54'1019.5
2017-Oct-11 20:30N 49°17' W 123°40'1020.2
2017-Oct-11 20:00N 49°19' W 123°25'612.7
2017-Oct-11 19:30N 49°23' W 123°16'1 2.3
2017-Oct-11 19:01N 49°23' W 123°18'1019.4
2017-Oct-11 18:30N 49°18' W 123°30'1020.7
2017-Oct-11 18:00N 49°15' W 123°45'917.4
2017-Oct-11 17:30N 49°12' W 123°57'1 1.4
2017-Oct-11 17:01N 49°12' W 123°57'26 1.5
2017-Oct-11 00:00N 49°20' W 123°20'1019.3
2017-Oct-10 23:30N 49°17' W 123°33'1019.8
2017-Oct-10 23:00N 49°14' W 123°48'712.8
2017-Oct-10 22:30N 49°12' W 123°57'0 0.0
2017-Oct-10 22:00N 49°12' W 123°57'612.0
2017-Oct-10 21:30N 49°14' W 123°49'1020.2
2017-Oct-10 21:00N 49°17' W 123°34'1019.6
2017-Oct-10 20:30N 49°20' W 123°20'3 6.6
2017-Oct-10 20:00N 49°23' W 123°16'1 2.5
2017-Oct-10 19:30N 49°23' W 123°18'918.5
2017-Oct-10 19:00N 49°17' W 123°30'1020.5
2017-Oct-10 18:30N 49°15' W 123°45'916.7
2017-Oct-10 18:00N 49°12' W 123°57'0 0.1
2017-Oct-10 17:31N 49°12' W 123°57'816.8
2017-Oct-10 17:00N 49°15' W 123°46'1019.8
2017-Oct-10 16:31N 49°18' W 123°31'918.2
2017-Oct-10 16:01N 49°22' W 123°19'2 3.2
2017-Oct-10 15:30N 49°23' W 123°16'5 9.2
2017-Oct-10 15:00N 49°20' W 123°21'1818.1
2017-Oct-10 14:00N 49°14' W 123°48'713.0
2017-Oct-10 13:30N 49°12' W 123°57'0 0.0
2017-Oct-10 12:36N 49°12' W 123°57'0 0.0
2017-Oct-10 12:21N 49°12' W 123°57'0 0.0
2017-Oct-10 11:27N 49°12' W 123°57'0 0.0
2017-Oct-10 10:27N 49°12' W 123°57'0 0.0
2017-Oct-10 10:00N 49°12' W 123°57'0 0.0
2017-Oct-10 09:30N 49°12' W 123°57'0 0.0
2017-Oct-10 09:00N 49°12' W 123°57'0 0.0
2017-Oct-10 08:30N 49°12' W 123°57'0 0.0
2017-Oct-10 07:15N 49°12' W 123°57'0 0.0
2017-Oct-10 07:00N 49°12' W 123°57'4 8.0
2017-Oct-10 06:30N 49°14' W 123°53'1020.0
2017-Oct-10 06:00N 49°17' W 123°38'1020.6
2017-Oct-10 05:30N 49°20' W 123°23'510.3
2017-Oct-10 05:00N 49°23' W 123°16'0 0.0
2017-Oct-10 04:30N 49°23' W 123°16'612.8
2017-Oct-10 04:00N 49°19' W 123°24'1019.4
2017-Oct-10 03:31N 49°16' W 123°38'1020.3
2017-Oct-10 03:01N 49°13' W 123°54'3 6.2
2017-Oct-10 02:30N 49°12' W 123°57'2 3.1
2017-Oct-10 02:00N 49°13' W 123°55'1020.0
2017-Oct-10 01:30N 49°16' W 123°41'1020.2
2017-Oct-10 01:00N 49°19' W 123°26'815.1
2017-Oct-10 00:30N 49°23' W 123°16'0 0.0
2017-Oct-10 00:00N 49°23' W 123°16'510.0
2017-Oct-09 23:30N 49°19' W 123°22'1020.2
2017-Oct-09 23:00N 49°16' W 123°37'1020.2
2017-Oct-09 22:30N 49°14' W 123°52'4 8.3
2017-Oct-09 22:01N 49°12' W 123°57'0 0.3
2017-Oct-09 21:30N 49°12' W 123°57'918.1
2017-Oct-09 21:00N 49°16' W 123°45'1020.0
2017-Oct-09 20:31N 49°18' W 123°30'1019.0
2017-Oct-09 20:01N 49°23' W 123°17'1 1.7
2017-Oct-09 19:30N 49°23' W 123°16'5 9.2
2017-Oct-09 19:01N 49°20' W 123°21'1020.1
2017-Oct-09 18:31N 49°16' W 123°36'1020.4
2017-Oct-09 18:01N 49°13' W 123°51'4 8.8
2017-Oct-09 17:30N 49°12' W 123°57'1 2.2
2017-Oct-09 17:00N 49°12' W 123°56'1020.0
2017-Oct-09 16:30N 49°16' W 123°42'1020.7
2017-Oct-09 16:00N 49°19' W 123°27'815.5
2017-Oct-09 15:30N 49°23' W 123°16'0 0.0
2017-Oct-09 15:00N 49°23' W 123°16'612.4
2017-Oct-09 14:30N 49°19' W 123°24'1020.0
2017-Oct-09 14:00N 49°16' W 123°38'1020.4
2017-Oct-09 13:30N 49°13' W 123°54'3 5.0
2017-Oct-09 12:55N 49°12' W 123°57'0 0.0
2017-Oct-09 12:07N 49°12' W 123°57'0 0.0
2017-Oct-09 11:55N 49°12' W 123°57'0 0.0
2017-Oct-09 11:25N 49°12' W 123°57'0 0.0
2017-Oct-09 10:55N 49°12' W 123°57'0 0.0
2017-Oct-09 10:28N 49°12' W 123°57'0 0.0
2017-Oct-09 09:55N 49°12' W 123°57'0 0.0
2017-Oct-09 09:25N 49°12' W 123°57'0 0.0
2017-Oct-09 08:58N 49°12' W 123°57'0 0.0
2017-Oct-09 08:25N 49°12' W 123°57'0 0.0
2017-Oct-09 07:43N 49°12' W 123°57'0 0.0
2017-Oct-09 07:28N 49°12' W 123°57'  

Dump ship's entire track history